x

Central Aleutians 230nm Sw Dutch Harbor (46072) Wave Buoy

1:50 - Sun 31st Aug 2014 All times are UTC.

  • Sig Wave height 5.9ft
  • Peak Period 8s
  • Average Period 6s
  • Wind
    11mph, 13mph gusts
  • Sea Temp 50°f
  • Air Temp 50°f
  • Sea Pressure 1010.6mb

More Historic Weather Station data

Upgrade to MSW Pro to gain access to the past 30 days of data for over 8000 Wavebouys and Weather Stations around the globe.

Join Pro

Comparision Forecast

View Surf forecast
   
dim. 08/31 1:50 6ft 8s 6s 11 13 mph 1010.6mb 50f 50f
12:50 5.5ft 8s 6s 13 16 mph 1010.3mb 50f 51f
sam. 08/30 11:50 6.5ft 8s 6s 11 13 mph 1010.4mb 50f 51f
10:50 7ft 10s 6s 11 13 mph 1010.3mb 50f 51f
9:50 6.5ft 9s 6s 13 16 mph 1010.2mb 50f 51f
8:50 6.5ft 9s 6s 11 13 mph 1010mb 50f 51f
7:50 7ft 10s 7s 11 13 mph 1009.4mb 50f 51f
6:50 6.5ft 11s 7s 9 11 mph 1009.3mb 49f 51f
5:50 7ft 10s 7s 7 11 mph 1009mb 48f 50f
4:50 6ft 11s 7s 9 11 mph 1008.4mb 47f 50f
3:50 6ft 11s 7s 9 11 mph 1008.2mb 46f 50f
2:50 6ft 11s 7s 13 16 mph 1007.5mb 48f 51f
1:50 5.5ft 11s 6s 11 13 mph 1007.2mb 50f 50f
12:50 6ft 9s 6s 11 13 mph 1006.8mb 52f 51f
11:50 6ft 11s 6s 13 16 mph 1006.4mb 52f 50f
10:50 6ft 9s 6s 18 20 mph 1005.5mb 54f 52f
9:50 6ft 8s 6s 18 22 mph 1005.4mb 54f 53f
8:50 6ft 8s 6s 18 20 mph 1005.3mb 54f 53f
7:50 6ft 8s 6s 16 20 mph 1005mb 55f 53f
6:50 5.5ft 9s 6s 16 18 mph 1004.5mb 54f 54f
5:50 5.5ft 9s 6s 11 13 mph 1004.4mb 55f 53f
4:50 6ft 8s 6s 9 11 mph 1004.5mb 54f 53f
3:50 6ft 9s 6s 7 9 mph 1004.5mb 51f 53f
2:50 5.5ft 9s 6s 4 7 mph 1004.7mb 50f 53f
1:50 5.5ft 9s 6s 9 11 mph 1006mb 53f 54f
12:50 6ft 9s 6s 11
mph
1006.3mb 53f 53f
ven. 08/29 11:50 6.5ft 9s 6s 11 13 mph 1007.8mb 53f 53f
10:50 7ft 9s 6s 13 16 mph 1008.6mb 51f 53f
9:50 6.5ft 8s 6s 13 18 mph 1009.3mb 51f 53f
8:50 6ft 8s 6s 13 16 mph 1009.7mb 50f 53f
7:50 6ft 8s 6s 13 16 mph 1009.9mb 49f 53f
6:50 5.5ft 8s 6s 16 18 mph 1010.3mb 48f 53f
5:50 6ft 8s 6s 16 18 mph 1010.7mb 48f 54f
4:50 6.5ft 8s 7s 16 18 mph 1011.3mb 53f 54f
3:50 6ft 8s 6s 13 16 mph 1011.7mb 53f 54f
2:50 6ft 8s 6s 11 13 mph 1012.2mb 53f 54f
1:50 7ft 8s 6s 13
mph
1012.5mb 54f 54f
12:50 6.5ft 7s 6s 13 16 mph 1013.1mb 54f 53f
11:50 7ft 7s 6s 16 18 mph 1013.6mb 53f 53f
10:50 7.5ft 8s 6s 13 16 mph 1013.9mb 53f 53f
9:50 8.5ft 9s 6s 13 16 mph 1014.4mb 54f 53f
8:50 7.5ft 8s 6s 11 13 mph 1013.8mb 54f 53f
7:50 7ft 9s 6s 13 16 mph 1014.1mb 53f 53f
6:50 7.5ft 8s 6s 11 13 mph 1013.6mb 53f 53f
5:50 7.5ft 8s 6s 13 16 mph 1013.3mb 52f 53f
4:50 7ft 8s 7s 13 16 mph 1013.8mb 53f 52f
3:50 7ft 7s 6s 18 20 mph 1013.1mb 53f 52f
2:50 7ft 7s 6s 20 25 mph 1012.9mb 52f 53f
1:50 8ft 7s 6s 18 22 mph 1013.4mb 52f 52f
12:50 8ft 7s 6s 20 25 mph 1013.3mb 52f 52f
jeu. 08/28 11:50 7.5ft 8s 5s 22 27 mph 1012.8mb 52f 52f
10:50 7ft 8s 5s 22 27 mph 1012.6mb 52f 52f
9:50 6ft 8s 5s 25 34 mph 1012.5mb 53f 53f
8:50 5ft 8s 5s 22 27 mph 1012mb 53f 53f
7:50 4.5ft 8s 5s 16 20 mph 1011.5mb 52f 53f
6:50 4.5ft 9s 6s 13 18 mph 1011.1mb 53f 54f
5:50 5ft 9s 6s 9
mph
1010.7mb 52f 54f
4:50 5ft 8s 6s 7 9 mph 1010.5mb 53f 54f
3:50 6ft 9s 6s 9
mph
1010.4mb 53f 54f
2:50 6ft 9s 6s 11
mph
1010.7mb 52f 53f
1:50 6ft 8s 6s 11 13 mph 1010.9mb 52f 53f
12:50 6ft 8s 6s 11 13 mph 1011.5mb 52f 53f
11:50 7ft 8s 6s 11 13 mph 1011.9mb 52f 53f
10:50 7ft 8s 6s 11 16 mph 1012.2mb 51f 53f
9:50 7ft 8s 6s 11 13 mph 1012.9mb 51f 53f
8:50 7ft 8s 6s 13 16 mph 1013.1mb 51f 53f
7:50 6ft 8s 6s 13 16 mph 1013.6mb 52f 53f
6:50 6.5ft 8s 6s 13
mph
1014.1mb 52f 53f
5:50 7ft 8s 7s 11 13 mph 1014.3mb 53f 53f
4:50 6ft 8s 6s 9
mph
1014.9mb 52f 53f
3:50 6.5ft 8s 6s 7 9 mph 1015.1mb 48f 51f
2:50 6.5ft 8s 6s 4 7 mph 1015.3mb 49f 50f
1:50 6.5ft 9s 6s 2 4 mph 1015.4mb 49f 50f
12:50 7ft 8s 6s 2 4 mph 1015.5mb 49f 50f
mer. 08/27 11:50 7.5ft 8s 6s  -  2 mph 1015.4mb 49f 50f
10:50 8ft 8s 6s 2 4 mph 1015.8mb 49f 50f
9:50 8ft 8s 6s 7 9 mph 1015.4mb 50f 50f
8:50 8ft 8s 6s 11
mph
1014.9mb 50f 50f
7:50 8ft 7s 6s 16 18 mph 1014mb 50f 51f
6:50 8.5ft 9s 6s 20 22 mph 1012.8mb 50f 53f
5:50 9ft 7s 6s 22 29 mph 1012.2mb 49f 54f
4:50 8ft 10s 6s 25 31 mph 1012mb 49f 54f
3:50 8.5ft 8s 6s 22 29 mph 1012.2mb 49f 54f
2:50 8ft 8s 6s 20 25 mph 1013.3mb 50f 53f
1:50 8.5ft 10s 7s 20 27 mph 1014mb 50f 54f
12:50 8ft 8s 6s 20 25 mph 1014.7mb 50f 54f
11:50 8ft 10s 6s 18 22 mph 1015.2mb 53f 54f
10:50 8ft 9s 6s 20 22 mph 1015.4mb 54f 54f
9:50 8.5ft 10s 6s 20 27 mph 1015.6mb 54f 54f
8:50 9.5ft 8s 6s 20 25 mph 1015.6mb 53f 54f
7:50 9.5ft 10s 6s 20 22 mph 1015.6mb 53f 54f
6:50 9.5ft 10s 6s 20 25 mph 1015.7mb 54f 54f
5:50 10ft 10s 6s 20 25 mph 1015.5mb 54f 54f
4:50 11.5ft 10s 7s 22 27 mph 1015.5mb 53f 54f
3:50 10ft 9s 6s 22 27 mph 1015.5mb 51f 54f